Dl Emerald — DSRK4 — position and weather

sailwx.info

Track history (hours):
 
Tides and Currents Weather Stations Pressure Air Temp Water Temp Dewpoint Dewpoint Depression Visibility Wind Speed Wind Dir Waves Ship Positions

Dl Emerald

Last reported at 2017-Dec-16 15:28 UTC. Time now 2017-Dec-17 03:54 UTC.
Position N 25°09' E 121°24'.

Length 106 m; draft 7 m.

Type: Ship (hazmat cat B). MMSI: 441890000.

Date/timePositionNaut miles runAvg speedWind from/ knotsBaromVisibWave heightAir tempDewpointWater temp
2017-Dec-16 15:28N 25°09' E 121°24'0 0.2
2017-Dec-16 14:52N 25°09' E 121°24'2 4.6
2017-Dec-16 14:30N 25°09' E 121°22'5 9.6
2017-Dec-16 14:00N 25°12' E 121°18'611.0
2017-Dec-16 13:30N 25°18' E 121°16'612.5
2017-Dec-16 13:00N 25°23' E 121°20'613.0
2017-Dec-16 12:31N 25°27' E 121°25'713.3
2017-Dec-16 12:00N 25°31' E 121°31'713.5
2017-Dec-16 11:31N 25°35' E 121°37'812.5
2017-Dec-16 10:53N 25°39' E 121°44'  
2017-Dec-13 16:36N 32°43' E 133°15'23810.9
2017-Dec-12 18:51N 34°26' E 137°33'4 9.8
2017-Dec-12 18:25N 34°27' E 137°38'4 9.8
2017-Dec-12 17:59N 34°27' E 137°43'6 9.4
2017-Dec-12 17:24N 34°28' E 137°50'5 9.2
2017-Dec-12 16:54N 34°28' E 137°55'11 9.2
2017-Dec-12 15:40N 34°29' E 138°09'2 7.9
2017-Dec-12 15:24N 34°30' E 138°12'4 7.9
2017-Dec-12 14:57N 34°30' E 138°16'4 8.7
2017-Dec-12 14:30N 34°31' E 138°20'5 8.2
2017-Dec-12 13:56N 34°31' E 138°26'3 7.2
2017-Dec-12 13:27N 34°32' E 138°30'3 6.8
2017-Dec-12 12:59N 34°32' E 138°34'3 6.8
2017-Dec-12 12:29N 34°32' E 138°38'4 6.8
2017-Dec-12 11:57N 34°32' E 138°43'3 6.7
2017-Dec-12 11:30N 34°33' E 138°46'3 6.9
2017-Dec-12 11:00N 34°33' E 138°50'3 6.0
2017-Dec-12 10:30N 34°33' E 138°54'3 5.6
2017-Dec-12 10:00N 34°33' E 138°57'3 6.6
2017-Dec-12 09:30N 34°35' E 139°01'4 8.0
2017-Dec-12 09:00N 34°38' E 139°04'4 8.0
2017-Dec-12 08:30N 34°40' E 139°08'4 8.3
2017-Dec-12 07:58N 34°43' E 139°12'5 9.2
2017-Dec-12 07:28N 34°46' E 139°16'5 9.1
2017-Dec-12 06:57N 34°50' E 139°20'4 9.5
2017-Dec-12 06:30N 34°53' E 139°24'5 9.9
2017-Dec-12 06:00N 34°56' E 139°28'510.5
2017-Dec-12 05:30N 34°59' E 139°33'510.7
2017-Dec-12 05:00N 35°03' E 139°38'510.6
2017-Dec-12 04:30N 35°06' E 139°43'510.6
2017-Dec-12 04:00N 35°11' E 139°46'511.0
2017-Dec-12 03:31N 35°17' E 139°45'611.3
2017-Dec-12 03:01N 35°22' E 139°43'510.8
2017-Dec-12 02:30N 35°27' E 139°46'4 8.0
2017-Dec-12 02:01N 35°31' E 139°46'0 0.7
2017-Dec-12 01:25N 35°31' E 139°46'0 0.0
2017-Dec-12 00:58N 35°31' E 139°46'0 0.0
2017-Dec-12 00:28N 35°31' E 139°46'0 0.0
2017-Dec-12 00:00N 35°31' E 139°46'0 0.0
2017-Dec-11 23:31N 35°31' E 139°46'0 0.0
2017-Dec-11 22:58N 35°31' E 139°46'0 0.0
2017-Dec-11 22:22N 35°31' E 139°46'0 0.0
2017-Dec-11 21:54N 35°31' E 139°46'0 0.0
2017-Dec-11 21:25N 35°31' E 139°46'0 0.0
2017-Dec-11 20:58N 35°31' E 139°46'0 0.0
2017-Dec-11 20:16N 35°31' E 139°46'0 0.0
2017-Dec-11 20:01N 35°31' E 139°46'0 0.0
2017-Dec-11 19:25N 35°31' E 139°46'0 0.0
2017-Dec-11 18:46N 35°31' E 139°46'0 0.0
2017-Dec-11 18:31N 35°31' E 139°46'0 0.0
2017-Dec-11 17:58N 35°31' E 139°46'0 0.0
2017-Dec-11 17:28N 35°31' E 139°46'0 0.0
2017-Dec-11 16:58N 35°31' E 139°46'0 0.0
2017-Dec-11 16:25N 35°31' E 139°46'0 0.0
2017-Dec-11 15:58N 35°31' E 139°46'0 0.0
2017-Dec-11 15:22N 35°31' E 139°46'0 0.0
2017-Dec-11 15:01N 35°31' E 139°46'0 0.0
2017-Dec-11 14:25N 35°31' E 139°46'0 0.0
2017-Dec-11 13:58N 35°31' E 139°46'0 0.0
2017-Dec-11 13:22N 35°31' E 139°46'0 0.0
2017-Dec-11 13:01N 35°31' E 139°46'0 0.0
2017-Dec-11 12:01N 35°31' E 139°46'0 0.0
2017-Dec-11 12:00N 35°31' E 139°46'0 0.0
2017-Dec-11 11:31N 35°31' E 139°46'0 0.0
2017-Dec-11 10:52N 35°31' E 139°46'0 0.0
2017-Dec-11 10:31N 35°31' E 139°46'0 0.0
2017-Dec-11 10:01N 35°31' E 139°46'0 0.0
2017-Dec-11 09:28N 35°31' E 139°46'0 0.0
2017-Dec-11 08:58N 35°31' E 139°46'0 0.0
2017-Dec-11 08:31N 35°31' E 139°46'0 0.0
2017-Dec-11 08:01N 35°31' E 139°46'0 0.0
2017-Dec-11 07:28N 35°31' E 139°46'0 0.0
2017-Dec-11 06:46N 35°31' E 139°46'0 0.0
2017-Dec-11 06:22N 35°31' E 139°46'0 0.0
2017-Dec-11 05:55N 35°31' E 139°46'0 0.0
2017-Dec-11 05:31N 35°31' E 139°46'0 0.0
2017-Dec-11 05:01N 35°31' E 139°46'0 0.0
2017-Dec-11 04:19N 35°31' E 139°46'0 0.0
2017-Dec-11 04:01N 35°31' E 139°46'0 0.0
2017-Dec-11 03:31N 35°31' E 139°46'0 0.0
2017-Dec-11 03:00N 35°31' E 139°46'0 0.0
2017-Dec-11 02:25N 35°31' E 139°46'0 0.0
2017-Dec-11 01:58N 35°31' E 139°46'2 4.8
2017-Dec-11 01:30N 35°30' E 139°44'3 5.8
2017-Dec-11 01:00N 35°27' E 139°43'0 0.7
2017-Dec-11 00:28N 35°27' E 139°43'0 0.0
2017-Dec-10 23:58N 35°27' E 139°43'0 0.1
2017-Dec-10 23:29N 35°27' E 139°43'0 0.1
2017-Dec-10 22:59N 35°27' E 139°43'0 0.0
2017-Dec-10 22:29N 35°27' E 139°43'0 0.0
2017-Dec-10 21:59N 35°27' E 139°43'0 0.0
2017-Dec-10 21:29N 35°27' E 139°43'0 0.0
2017-Dec-10 20:59N 35°27' E 139°43'0 0.1
2017-Dec-10 20:29N 35°27' E 139°43'0 0.1
2017-Dec-10 19:59N 35°27' E 139°43'0 0.0
2017-Dec-10 19:29N 35°27' E 139°43'0 0.0
2017-Dec-10 18:59N 35°27' E 139°43'0 0.0
2017-Dec-10 18:29N 35°27' E 139°43'0 0.0
2017-Dec-10 17:59N 35°27' E 139°43'0 0.0
2017-Dec-10 17:29N 35°27' E 139°43'0 0.0
2017-Dec-10 16:59N 35°27' E 139°43'0 0.0
2017-Dec-10 16:29N 35°27' E 139°43'0 0.0
2017-Dec-10 15:59N 35°27' E 139°43'0 0.0
2017-Dec-10 15:29N 35°27' E 139°43'0 0.1
2017-Dec-10 14:59N 35°27' E 139°43'0 0.3
2017-Dec-10 14:29N 35°27' E 139°43'0 0.0
2017-Dec-10 13:59N 35°27' E 139°43'0 0.0
2017-Dec-10 13:29N 35°27' E 139°43'0 0.1
2017-Dec-10 12:58N 35°27' E 139°43'0 0.1
2017-Dec-10 12:28N 35°27' E 139°43'0 0.1
2017-Dec-10 11:58N 35°27' E 139°43'0 0.1
2017-Dec-10 11:28N 35°27' E 139°43'0 0.0
2017-Dec-10 10:58N 35°27' E 139°43'0 0.0
2017-Dec-10 10:28N 35°27' E 139°43'0 0.1
2017-Dec-10 09:58N 35°27' E 139°43'0 0.1
2017-Dec-10 09:30N 35°27' E 139°43'3 5.8
2017-Dec-10 09:00N 35°25' E 139°46'713.3
2017-Dec-10 08:31N 35°19' E 139°44'612.4
2017-Dec-10 08:01N 35°13' E 139°47'612.9
2017-Dec-10 07:30N 35°07' E 139°46'612.8
2017-Dec-10 07:00N 35°01' E 139°44'510.5
2017-Dec-10 06:31N 34°56' E 139°46'611.5
2017-Dec-10 06:00N 34°52' E 139°51'610.7
2017-Dec-10 05:29N 34°53' E 139°58'510.0
2017-Dec-10 05:00N 34°54' E 140°04'510.1
2017-Dec-10 04:30N 34°57' E 140°09'510.4
2017-Dec-10 04:00N 34°60' E 140°14'610.9
2017-Dec-10 03:26N 35°04' E 140°20'  
2017-Dec-07 11:09N 34°60' E 140°14'110.6
2017-Dec-07 11:00N 34°59' E 140°12'811.8
2017-Dec-07 10:20N 34°55' E 140°04'514.7
2017-Dec-07 09:59N 34°52' E 139°59'1114.6
2017-Dec-07 09:15N 34°46' E 139°48'414.3
2017-Dec-07 08:56N 34°44' E 139°43'614.1
2017-Dec-07 08:30N 34°42' E 139°36'713.9
2017-Dec-07 08:00N 34°38' E 139°29'713.0
2017-Dec-07 07:27N 34°35' E 139°21'612.6
2017-Dec-07 07:00N 34°33' E 139°14'714.1
2017-Dec-07 06:30N 34°31' E 139°06'713.9
2017-Dec-07 06:01N 34°28' E 138°59'713.9
2017-Dec-07 05:29N 34°25' E 138°51'713.3
2017-Dec-07 04:59N 34°22' E 138°43'613.3
2017-Dec-07 04:30N 34°20' E 138°36'712.8
2017-Dec-07 03:58N 34°17' E 138°28'612.8
2017-Dec-07 03:28N 34°15' E 138°21'  
Track history (hours):
 
Tides and Currents Weather Stations Pressure Air Temp Water Temp Dewpoint Dewpoint Depression Visibility Wind Speed Wind Dir Waves Ship Positions

Dl Emerald

Last reported at 2017-Dec-16 15:28 UTC. Time now 2017-Dec-17 03:54 UTC.
Position N 25°09' E 121°24'.

Length 106 m; draft 7 m.

Type: Ship (hazmat cat B). MMSI: 441890000.

Date/timePositionNaut miles runAvg speedWind from/ knotsBaromVisibWave heightAir tempDewpointWater temp
2017-Dec-16 15:28N 25°09' E 121°24'0 0.2
2017-Dec-16 14:52N 25°09' E 121°24'2 4.6
2017-Dec-16 14:30N 25°09' E 121°22'5 9.6
2017-Dec-16 14:00N 25°12' E 121°18'611.0
2017-Dec-16 13:30N 25°18' E 121°16'612.5
2017-Dec-16 13:00N 25°23' E 121°20'613.0
2017-Dec-16 12:31N 25°27' E 121°25'713.3
2017-Dec-16 12:00N 25°31' E 121°31'713.5
2017-Dec-16 11:31N 25°35' E 121°37'812.5
2017-Dec-16 10:53N 25°39' E 121°44'  
2017-Dec-13 16:36N 32°43' E 133°15'23810.9
2017-Dec-12 18:51N 34°26' E 137°33'4 9.8
2017-Dec-12 18:25N 34°27' E 137°38'4 9.8
2017-Dec-12 17:59N 34°27' E 137°43'6 9.4
2017-Dec-12 17:24N 34°28' E 137°50'5 9.2
2017-Dec-12 16:54N 34°28' E 137°55'11 9.2
2017-Dec-12 15:40N 34°29' E 138°09'2 7.9
2017-Dec-12 15:24N 34°30' E 138°12'4 7.9
2017-Dec-12 14:57N 34°30' E 138°16'4 8.7
2017-Dec-12 14:30N 34°31' E 138°20'5 8.2
2017-Dec-12 13:56N 34°31' E 138°26'3 7.2
2017-Dec-12 13:27N 34°32' E 138°30'3 6.8
2017-Dec-12 12:59N 34°32' E 138°34'3 6.8
2017-Dec-12 12:29N 34°32' E 138°38'4 6.8
2017-Dec-12 11:57N 34°32' E 138°43'3 6.7
2017-Dec-12 11:30N 34°33' E 138°46'3 6.9
2017-Dec-12 11:00N 34°33' E 138°50'3 6.0
2017-Dec-12 10:30N 34°33' E 138°54'3 5.6
2017-Dec-12 10:00N 34°33' E 138°57'3 6.6
2017-Dec-12 09:30N 34°35' E 139°01'4 8.0
2017-Dec-12 09:00N 34°38' E 139°04'4 8.0
2017-Dec-12 08:30N 34°40' E 139°08'4 8.3
2017-Dec-12 07:58N 34°43' E 139°12'5 9.2
2017-Dec-12 07:28N 34°46' E 139°16'5 9.1
2017-Dec-12 06:57N 34°50' E 139°20'4 9.5
2017-Dec-12 06:30N 34°53' E 139°24'5 9.9
2017-Dec-12 06:00N 34°56' E 139°28'510.5
2017-Dec-12 05:30N 34°59' E 139°33'510.7
2017-Dec-12 05:00N 35°03' E 139°38'510.6
2017-Dec-12 04:30N 35°06' E 139°43'510.6
2017-Dec-12 04:00N 35°11' E 139°46'511.0
2017-Dec-12 03:31N 35°17' E 139°45'611.3
2017-Dec-12 03:01N 35°22' E 139°43'510.8
2017-Dec-12 02:30N 35°27' E 139°46'4 8.0
2017-Dec-12 02:01N 35°31' E 139°46'0 0.7
2017-Dec-12 01:25N 35°31' E 139°46'0 0.0
2017-Dec-12 00:58N 35°31' E 139°46'0 0.0
2017-Dec-12 00:28N 35°31' E 139°46'0 0.0
2017-Dec-12 00:00N 35°31' E 139°46'0 0.0
2017-Dec-11 23:31N 35°31' E 139°46'0 0.0
2017-Dec-11 22:58N 35°31' E 139°46'0 0.0
2017-Dec-11 22:22N 35°31' E 139°46'0 0.0
2017-Dec-11 21:54N 35°31' E 139°46'0 0.0
2017-Dec-11 21:25N 35°31' E 139°46'0 0.0
2017-Dec-11 20:58N 35°31' E 139°46'0 0.0
2017-Dec-11 20:16N 35°31' E 139°46'0 0.0
2017-Dec-11 20:01N 35°31' E 139°46'0 0.0
2017-Dec-11 19:25N 35°31' E 139°46'0 0.0
2017-Dec-11 18:46N 35°31' E 139°46'0 0.0
2017-Dec-11 18:31N 35°31' E 139°46'0 0.0
2017-Dec-11 17:58N 35°31' E 139°46'0 0.0
2017-Dec-11 17:28N 35°31' E 139°46'0 0.0
2017-Dec-11 16:58N 35°31' E 139°46'0 0.0
2017-Dec-11 16:25N 35°31' E 139°46'0 0.0
2017-Dec-11 15:58N 35°31' E 139°46'0 0.0
2017-Dec-11 15:22N 35°31' E 139°46'0 0.0
2017-Dec-11 15:01N 35°31' E 139°46'0 0.0
2017-Dec-11 14:25N 35°31' E 139°46'0 0.0
2017-Dec-11 13:58N 35°31' E 139°46'0 0.0
2017-Dec-11 13:22N 35°31' E 139°46'0 0.0
2017-Dec-11 13:01N 35°31' E 139°46'0 0.0
2017-Dec-11 12:01N 35°31' E 139°46'0 0.0
2017-Dec-11 12:00N 35°31' E 139°46'0 0.0
2017-Dec-11 11:31N 35°31' E 139°46'0 0.0
2017-Dec-11 10:52N 35°31' E 139°46'0 0.0
2017-Dec-11 10:31N 35°31' E 139°46'0 0.0
2017-Dec-11 10:01N 35°31' E 139°46'0 0.0
2017-Dec-11 09:28N 35°31' E 139°46'0 0.0
2017-Dec-11 08:58N 35°31' E 139°46'0 0.0
2017-Dec-11 08:31N 35°31' E 139°46'0 0.0
2017-Dec-11 08:01N 35°31' E 139°46'0 0.0
2017-Dec-11 07:28N 35°31' E 139°46'0 0.0
2017-Dec-11 06:46N 35°31' E 139°46'0 0.0
2017-Dec-11 06:22N 35°31' E 139°46'0 0.0
2017-Dec-11 05:55N 35°31' E 139°46'0 0.0
2017-Dec-11 05:31N 35°31' E 139°46'0 0.0
2017-Dec-11 05:01N 35°31' E 139°46'0 0.0
2017-Dec-11 04:19N 35°31' E 139°46'0 0.0
2017-Dec-11 04:01N 35°31' E 139°46'0 0.0
2017-Dec-11 03:31N 35°31' E 139°46'0 0.0
2017-Dec-11 03:00N 35°31' E 139°46'0 0.0
2017-Dec-11 02:25N 35°31' E 139°46'0 0.0
2017-Dec-11 01:58N 35°31' E 139°46'2 4.8
2017-Dec-11 01:30N 35°30' E 139°44'3 5.8
2017-Dec-11 01:00N 35°27' E 139°43'0 0.7
2017-Dec-11 00:28N 35°27' E 139°43'0 0.0
2017-Dec-10 23:58N 35°27' E 139°43'0 0.1
2017-Dec-10 23:29N 35°27' E 139°43'0 0.1
2017-Dec-10 22:59N 35°27' E 139°43'0 0.0
2017-Dec-10 22:29N 35°27' E 139°43'0 0.0
2017-Dec-10 21:59N 35°27' E 139°43'0 0.0
2017-Dec-10 21:29N 35°27' E 139°43'0 0.0
2017-Dec-10 20:59N 35°27' E 139°43'0 0.1
2017-Dec-10 20:29N 35°27' E 139°43'0 0.1
2017-Dec-10 19:59N 35°27' E 139°43'0 0.0
2017-Dec-10 19:29N 35°27' E 139°43'0 0.0
2017-Dec-10 18:59N 35°27' E 139°43'0 0.0
2017-Dec-10 18:29N 35°27' E 139°43'0 0.0
2017-Dec-10 17:59N 35°27' E 139°43'0 0.0
2017-Dec-10 17:29N 35°27' E 139°43'0 0.0
2017-Dec-10 16:59N 35°27' E 139°43'0 0.0
2017-Dec-10 16:29N 35°27' E 139°43'0 0.0
2017-Dec-10 15:59N 35°27' E 139°43'0 0.0
2017-Dec-10 15:29N 35°27' E 139°43'0 0.1
2017-Dec-10 14:59N 35°27' E 139°43'0 0.3
2017-Dec-10 14:29N 35°27' E 139°43'0 0.0
2017-Dec-10 13:59N 35°27' E 139°43'0 0.0
2017-Dec-10 13:29N 35°27' E 139°43'0 0.1
2017-Dec-10 12:58N 35°27' E 139°43'0 0.1
2017-Dec-10 12:28N 35°27' E 139°43'0 0.1
2017-Dec-10 11:58N 35°27' E 139°43'0 0.1
2017-Dec-10 11:28N 35°27' E 139°43'0 0.0
2017-Dec-10 10:58N 35°27' E 139°43'0 0.0
2017-Dec-10 10:28N 35°27' E 139°43'0 0.1
2017-Dec-10 09:58N 35°27' E 139°43'0 0.1
2017-Dec-10 09:30N 35°27' E 139°43'3 5.8
2017-Dec-10 09:00N 35°25' E 139°46'713.3
2017-Dec-10 08:31N 35°19' E 139°44'612.4
2017-Dec-10 08:01N 35°13' E 139°47'612.9
2017-Dec-10 07:30N 35°07' E 139°46'612.8
2017-Dec-10 07:00N 35°01' E 139°44'510.5
2017-Dec-10 06:31N 34°56' E 139°46'611.5
2017-Dec-10 06:00N 34°52' E 139°51'610.7
2017-Dec-10 05:29N 34°53' E 139°58'510.0
2017-Dec-10 05:00N 34°54' E 140°04'510.1
2017-Dec-10 04:30N 34°57' E 140°09'510.4
2017-Dec-10 04:00N 34°60' E 140°14'610.9
2017-Dec-10 03:26N 35°04' E 140°20'  
2017-Dec-07 11:09N 34°60' E 140°14'110.6
2017-Dec-07 11:00N 34°59' E 140°12'811.8
2017-Dec-07 10:20N 34°55' E 140°04'514.7
2017-Dec-07 09:59N 34°52' E 139°59'1114.6
2017-Dec-07 09:15N 34°46' E 139°48'414.3
2017-Dec-07 08:56N 34°44' E 139°43'614.1
2017-Dec-07 08:30N 34°42' E 139°36'713.9
2017-Dec-07 08:00N 34°38' E 139°29'713.0
2017-Dec-07 07:27N 34°35' E 139°21'612.6
2017-Dec-07 07:00N 34°33' E 139°14'714.1
2017-Dec-07 06:30N 34°31' E 139°06'713.9
2017-Dec-07 06:01N 34°28' E 138°59'713.9
2017-Dec-07 05:29N 34°25' E 138°51'713.3
2017-Dec-07 04:59N 34°22' E 138°43'613.3
2017-Dec-07 04:30N 34°20' E 138°36'712.8
2017-Dec-07 03:58N 34°17' E 138°28'612.8
2017-Dec-07 03:28N 34°15' E 138°21'  

Dump ship's entire track history